Terminal Aerodrome Forecast
Issued by NWS

Home | Current Version | Previous Version | Text Only | Print | Product List | Glossary On
Versions: 1 2 3 4 5 6 7 8 9 10 11 12 13 14 15 16 17 18 19 20 21 22 23 24 25 26 27 28 29 30 31 32 33 34 35 36 37 38
000
FTUS43 KGLD 151733
TAFMCK
TAF
KMCK 151733Z 1518/1618 04012G19KT P6SM FEW030
     FM152100 09006KT P6SM SKC
     FM160400 15007KT P6SM FEW030
     FM161000 17008KT P6SM BKN150=

USA.gov is the U.S. government's official web portal to all federal, state and local government web resources and services.